Teslin Airport
CYZW : now visible

Airfield :











YOU CAN JOIN US ON...

 
LOGIN :

Register | Disclaimer

   EN    FR    IT 

 









Legend :    VFR   Marginal VFR   IFR   Intensive IFR   Very Intensive IFR
Visi :
Ceiling :
>= 8 km
>= 3000ft
5 to 8 km
1000 to 3000 ft
1500m to 5 km
500 to 1000 ft
800 to 1500m
200 to 500 ft
< 800m
< 200 ft
Symbols :   Thunderstorms  Fog  Heavy snow  Heavy precipitations  Wind > 20 kt






- Airport Elevation : 2313 ft
- IATA code : YZW


CYZW - Teslin

CURRENT METAR :
  • 192100Z 08004KT 060V180 30SM SCT052 BKN071 OVC120 21/11 A3010 RMK CU3AC4AC1 SH DIST S-W SLP206 DENSITY ALT 3400FT

EXPIRED METARs :
  • 192000Z 09003KT 080V160 30SM FEW043 BKN100 BKN130 BKN240 20/10 A3010 RMK CU2AC3AC1CI1 SLP206 DENSITY ALT 3300FT
  • 191900Z 09003KT 010V130 30SM FEW041 SCT075 BKN100 OVC130 18/09 A3009 RMK CU1AC2AC3AS2 SUN DIMLY VISBL SLP205 DENSITY ALT 3100FT
  • 191800Z 11007KT 30SM FEW041 SCT076 BKN100 17/08 A3011 RMK CU1AC2AC4 SLP208 DENSITY ALT 2900FT
  • 191700Z 09004KT 30SM FEW039 FEW076 SCT110 BKN210 15/08 A3011 RMK CU1AC1AC2CI4 CU TR CU OVR RDG SE SLP208 DENSITY ALT 2700FT

TAF TAF CYZW
Valid from the 19 at 18:00 until the 20 at 01:00 UTC


191740Z 1918/2001 VRB03KT P6SM SCT100
TEMPO 1918/1920 BKN100
FM192000 18006KT P6SM BKN080
TEMPO 1920/2001 P6SM -SHRA VCTS OVC060CB RMK NXT FCST BY 201500Z
CZEG FIR / North America



MET'MAP, your aeronautical weather chart ! - Copyright ORBIFLY December 2007 - Disclaimer

ORBIFLY MET'MAP TEAM :

Programming & Development : Alexandra Zaïnal
Original concept : Baudouin d'Aumeries
Technical & hardware support : Manuel Goepfert
Assistance : Marc-Olivier Méhu




SOURCES & CREDITS :

   NOAA       Earth
Advisory